Boody, IL (62514)

10:29 AM CST on February 12, 2016 (GMT -0600)
South Shores | | Change Station
CLOSE
Current Station
Personal Weather Station
Location: Decatur, IL
Elevation: 699 ft
Nearby Weather Stations

Elev 699 ft 39.81 °N, 88.95 °W | Updated 27 seconds ago

Overcast
Overcast
25.2 °F
Feels Like 25 °F
N
0.0
Wind Variable Wind from ESE
Gusts 0.0 mph

Today
High -- | Low -- °F
--% Chance of Precip.
Yesterday
High -- | Low -- °F
Precip. -- in
Pressure 30.26 in
Visibility 10.0 miles
Clouds Mostly Cloudy 1200 ft
Overcast 1800 ft
Windchill 25 °F
Dew Point 16 °F
Humidity 69%
Rainfall 0.00 in
Snow Depth Not available.
6:52 AM 5:28 PM
Waxing Crescent, 21% visible
METAR KDEC 121554Z 30010KT 10SM BKN012 OVC018 M04/M08 A3023 RMK AO2 SLP246 T10391078
Pressure 30.26 in
Visibility 10.0 miles
Clouds Mostly Cloudy 1200 ft
Overcast 1800 ft
Windchill 25 °F
Dew Point 16 °F
Humidity 69%
Rainfall 0.00 in
Snow Depth Not available.
6:52 AM 5:28 PM
Waxing Crescent, 21% visible
METAR KDEC 121554Z 30010KT 10SM BKN012 OVC018 M04/M08 A3023 RMK AO2 SLP246 T10391078

10-Day Weather Forecast

Almanac

Astronomy

Feb. 12, 2016 Rise Set
Actual Time
Civil Twilight
Nautical Twilight
Astronomical Twilight
Moon
Length of Visible Light
Length of Day
Tomorrow will be .
, % of the Moon is Illuminated

Today's Extremes

State Highs State Lows

Community

WunderPhotos

Upload Photos

1,892,350 photos uploaded!

WunderBlog® & News

Nearby

Air Quality

  Air Quality AQ Index Pollutant
Not available.

Snow Depth

Station Depth Elevation

Earthquake Activity

City Distance Mag. Time & Date
Minimum magnitude displayed is 2.5.

Coastal Water Temperatures

Place Temperature

Stations

Nearby Weather Stations

Station Location Temp. Windchill Dew Point Humidity Wind Precip. Elev Updated Type
                   

Watches & Warnings

There are currently no watches in effect.